sensor_id;sensor_type;location;lat;lon;timestamp;pressure;altitude;pressure_sealevel;temperature;humidity
45813;BME280;31519;45.408;10.962;2023-06-14T00:00:04;100151.81;;;26.45;48.97
45813;BME280;31519;45.408;10.962;2023-06-14T00:02:33;100159.72;;;26.39;49.52
45813;BME280;31519;45.408;10.962;2023-06-14T00:05:02;100162.53;;;26.56;49.20
45813;BME280;31519;45.408;10.962;2023-06-14T00:07:39;100153.75;;;26.25;49.66
45813;BME280;31519;45.408;10.962;2023-06-14T00:10:11;100145.03;;;26.10;50.40
45813;BME280;31519;45.408;10.962;2023-06-14T00:12:40;100146.03;;;25.96;50.67
45813;BME280;31519;45.408;10.962;2023-06-14T00:15:09;100144.44;;;25.99;50.99
45813;BME280;31519;45.408;10.962;2023-06-14T00:17:37;100142.78;;;26.05;50.83
45813;BME280;31519;45.408;10.962;2023-06-14T00:20:08;100147.53;;;26.01;50.85
45813;BME280;31519;45.408;10.962;2023-06-14T00:22:36;100148.16;;;26.09;50.56
45813;BME280;31519;45.408;10.962;2023-06-14T00:25:07;100146.22;;;26.09;50.78
45813;BME280;31519;45.408;10.962;2023-06-14T00:27:55;100149.16;;;25.98;51.48
45813;BME280;31519;45.408;10.962;2023-06-14T00:30:24;100141.03;;;26.15;50.81
45813;BME280;31519;45.408;10.962;2023-06-14T00:32:53;100146.75;;;26.00;51.17
45813;BME280;31519;45.408;10.962;2023-06-14T00:35:21;100142.00;;;25.81;51.69
45813;BME280;31519;45.408;10.962;2023-06-14T00:37:49;100140.19;;;25.75;51.81
45813;BME280;31519;45.408;10.962;2023-06-14T00:40:32;100143.63;;;25.79;51.69
45813;BME280;31519;45.408;10.962;2023-06-14T00:43:02;100143.44;;;25.89;51.75
45813;BME280;31519;45.408;10.962;2023-06-14T00:45:30;100136.44;;;25.88;52.09
45813;BME280;31519;45.408;10.962;2023-06-14T00:48:00;100147.78;;;25.87;52.10
45813;BME280;31519;45.408;10.962;2023-06-14T00:50:29;100142.06;;;25.78;52.24
45813;BME280;31519;45.408;10.962;2023-06-14T00:53:00;100138.75;;;25.67;52.72
45813;BME280;31519;45.408;10.962;2023-06-14T00:55:29;100149.56;;;25.74;52.57
45813;BME280;31519;45.408;10.962;2023-06-14T00:57:58;100140.13;;;25.78;52.33
45813;BME280;31519;45.408;10.962;2023-06-14T01:00:26;100139.50;;;25.67;52.42
45813;BME280;31519;45.408;10.962;2023-06-14T01:02:57;100136.63;;;25.51;53.04
45813;BME280;31519;45.408;10.962;2023-06-14T01:05:25;100136.59;;;25.54;52.99
45813;BME280;31519;45.408;10.962;2023-06-14T01:08:15;100134.03;;;25.71;52.70
45813;BME280;31519;45.408;10.962;2023-06-14T01:10:57;100134.59;;;25.58;53.21
45813;BME280;31519;45.408;10.962;2023-06-14T01:13:35;100128.66;;;25.64;53.29
45813;BME280;31519;45.408;10.962;2023-06-14T01:16:05;100124.72;;;25.41;53.80
45813;BME280;31519;45.408;10.962;2023-06-14T01:18:35;100138.75;;;25.40;53.30
45813;BME280;31519;45.408;10.962;2023-06-14T01:21:04;100129.75;;;25.43;53.24
45813;BME280;31519;45.408;10.962;2023-06-14T01:23:36;100128.94;;;25.46;53.31
45813;BME280;31519;45.408;10.962;2023-06-14T01:26:04;100127.09;;;25.66;52.69
45813;BME280;31519;45.408;10.962;2023-06-14T01:28:34;100127.53;;;25.07;53.88
45813;BME280;31519;45.408;10.962;2023-06-14T01:31:03;100119.59;;;24.90;54.36
45813;BME280;31519;45.408;10.962;2023-06-14T01:33:35;100124.72;;;25.14;53.93
45813;BME280;31519;45.408;10.962;2023-06-14T01:36:05;100129.38;;;24.87;55.03
45813;BME280;31519;45.408;10.962;2023-06-14T01:38:36;100124.94;;;24.66;55.33
45813;BME280;31519;45.408;10.962;2023-06-14T01:41:05;100120.47;;;24.80;56.00
45813;BME280;31519;45.408;10.962;2023-06-14T01:43:34;100113.69;;;24.64;56.45
45813;BME280;31519;45.408;10.962;2023-06-14T01:46:05;100127.78;;;24.90;56.29
45813;BME280;31519;45.408;10.962;2023-06-14T01:48:35;100119.59;;;24.90;56.30
45813;BME280;31519;45.408;10.962;2023-06-14T01:51:04;100123.63;;;25.08;55.87
45813;BME280;31519;45.408;10.962;2023-06-14T01:53:32;100124.78;;;25.38;55.05
45813;BME280;31519;45.408;10.962;2023-06-14T01:56:00;100128.97;;;25.42;55.21
45813;BME280;31519;45.408;10.962;2023-06-14T01:58:31;100123.88;;;25.44;55.79
45813;BME280;31519;45.408;10.962;2023-06-14T02:01:00;100122.63;;;25.49;55.60
45813;BME280;31519;45.408;10.962;2023-06-14T02:03:29;100117.50;;;25.54;55.15
45813;BME280;31519;45.408;10.962;2023-06-14T02:05:58;100126.94;;;25.23;56.21
45813;BME280;31519;45.408;10.962;2023-06-14T02:08:26;100122.34;;;25.16;56.41
45813;BME280;31519;45.408;10.962;2023-06-14T02:10:54;100119.16;;;25.22;56.48
45813;BME280;31519;45.408;10.962;2023-06-14T02:13:22;100114.84;;;24.97;57.36
45813;BME280;31519;45.408;10.962;2023-06-14T02:15:51;100119.88;;;25.26;56.60
45813;BME280;31519;45.408;10.962;2023-06-14T02:18:23;100117.88;;;24.72;58.19
45813;BME280;31519;45.408;10.962;2023-06-14T02:20:51;100114.41;;;24.68;58.59
45813;BME280;31519;45.408;10.962;2023-06-14T02:23:20;100117.66;;;24.90;58.21
45813;BME280;31519;45.408;10.962;2023-06-14T02:25:48;100120.97;;;25.05;57.74
45813;BME280;31519;45.408;10.962;2023-06-14T02:28:17;100120.69;;;24.96;58.37
45813;BME280;31519;45.408;10.962;2023-06-14T02:30:45;100118.81;;;24.93;58.73
45813;BME280;31519;45.408;10.962;2023-06-14T02:33:13;100128.03;;;24.99;58.71
45813;BME280;31519;45.408;10.962;2023-06-14T02:35:41;100125.19;;;24.79;59.08
45813;BME280;31519;45.408;10.962;2023-06-14T02:38:10;100122.91;;;24.74;59.42
45813;BME280;31519;45.408;10.962;2023-06-14T02:40:39;100127.66;;;25.00;58.83
45813;BME280;31519;45.408;10.962;2023-06-14T02:43:10;100119.63;;;24.56;60.59
45813;BME280;31519;45.408;10.962;2023-06-14T02:45:39;100114.75;;;24.70;60.10
45813;BME280;31519;45.408;10.962;2023-06-14T02:48:08;100115.25;;;24.62;60.64
45813;BME280;31519;45.408;10.962;2023-06-14T02:50:36;100108.13;;;24.71;60.04
45813;BME280;31519;45.408;10.962;2023-06-14T02:53:05;100111.50;;;24.83;59.66
45813;BME280;31519;45.408;10.962;2023-06-14T02:55:34;100110.19;;;24.94;59.69
45813;BME280;31519;45.408;10.962;2023-06-14T02:58:09;100115.19;;;24.69;61.01
45813;BME280;31519;45.408;10.962;2023-06-14T03:00:37;100099.13;;;24.44;61.90
45813;BME280;31519;45.408;10.962;2023-06-14T03:03:07;100100.69;;;24.45;62.19
45813;BME280;31519;45.408;10.962;2023-06-14T03:05:49;100103.38;;;24.49;61.75
45813;BME280;31519;45.408;10.962;2023-06-14T03:08:22;100105.28;;;24.52;61.76
45813;BME280;31519;45.408;10.962;2023-06-14T03:10:56;100103.97;;;24.63;61.40
45813;BME280;31519;45.408;10.962;2023-06-14T03:13:26;100095.03;;;24.63;61.02
45813;BME280;31519;45.408;10.962;2023-06-14T03:15:55;100094.53;;;24.71;60.80
45813;BME280;31519;45.408;10.962;2023-06-14T03:18:25;100100.66;;;24.79;60.97
45813;BME280;31519;45.408;10.962;2023-06-14T03:20:57;100095.66;;;24.74;60.58
45813;BME280;31519;45.408;10.962;2023-06-14T03:23:28;100100.41;;;25.00;60.26
45813;BME280;31519;45.408;10.962;2023-06-14T03:25:56;100103.06;;;24.73;61.14
45813;BME280;31519;45.408;10.962;2023-06-14T03:28:24;100096.31;;;24.55;61.37
45813;BME280;31519;45.408;10.962;2023-06-14T03:30:56;100088.22;;;24.78;60.85
45813;BME280;31519;45.408;10.962;2023-06-14T03:33:25;100091.72;;;24.79;60.17
45813;BME280;31519;45.408;10.962;2023-06-14T03:35:55;100090.75;;;24.62;61.04
45813;BME280;31519;45.408;10.962;2023-06-14T03:38:24;100085.00;;;24.56;61.57
45813;BME280;31519;45.408;10.962;2023-06-14T03:40:53;100089.78;;;24.76;61.49
45813;BME280;31519;45.408;10.962;2023-06-14T03:43:21;100086.84;;;24.93;60.74
45813;BME280;31519;45.408;10.962;2023-06-14T03:45:50;100095.69;;;24.70;61.21
45813;BME280;31519;45.408;10.962;2023-06-14T03:48:19;100088.19;;;24.51;61.90
45813;BME280;31519;45.408;10.962;2023-06-14T03:50:48;100089.69;;;24.56;61.25
45813;BME280;31519;45.408;10.962;2023-06-14T03:53:16;100092.63;;;24.35;61.60
45813;BME280;31519;45.408;10.962;2023-06-14T03:55:50;100089.41;;;24.43;60.93
45813;BME280;31519;45.408;10.962;2023-06-14T03:58:30;100091.47;;;24.36;61.67
45813;BME280;31519;45.408;10.962;2023-06-14T04:01:00;100091.88;;;24.34;61.26
45813;BME280;31519;45.408;10.962;2023-06-14T04:03:31;100089.84;;;24.42;60.49
45813;BME280;31519;45.408;10.962;2023-06-14T04:06:01;100092.31;;;24.29;60.79
45813;BME280;31519;45.408;10.962;2023-06-14T04:08:30;100102.84;;;24.61;59.61
45813;BME280;31519;45.408;10.962;2023-06-14T04:10:59;100107.63;;;24.50;59.52
45813;BME280;31519;45.408;10.962;2023-06-14T04:13:27;100112.25;;;24.87;58.59
45813;BME280;31519;45.408;10.962;2023-06-14T04:15:55;100107.06;;;24.65;59.27
45813;BME280;31519;45.408;10.962;2023-06-14T04:18:30;100112.91;;;24.64;59.01
45813;BME280;31519;45.408;10.962;2023-06-14T04:20:59;100114.78;;;24.37;59.69
45813;BME280;31519;45.408;10.962;2023-06-14T04:23:29;100120.25;;;24.37;60.26
45813;BME280;31519;45.408;10.962;2023-06-14T04:25:58;100119.69;;;24.15;61.17
45813;BME280;31519;45.408;10.962;2023-06-14T04:28:30;100119.66;;;24.52;60.33
45813;BME280;31519;45.408;10.962;2023-06-14T04:31:01;100115.47;;;24.44;60.49
45813;BME280;31519;45.408;10.962;2023-06-14T04:33:32;100124.97;;;24.33;60.46
45813;BME280;31519;45.408;10.962;2023-06-14T04:36:01;100127.13;;;24.45;60.39
45813;BME280;31519;45.408;10.962;2023-06-14T04:38:31;100129.38;;;24.19;60.81
45813;BME280;31519;45.408;10.962;2023-06-14T04:41:03;100129.97;;;24.34;60.68
45813;BME280;31519;45.408;10.962;2023-06-14T04:43:32;100137.19;;;24.51;60.17
45813;BME280;31519;45.408;10.962;2023-06-14T04:46:07;100139.94;;;24.82;59.66
45813;BME280;31519;45.408;10.962;2023-06-14T04:48:40;100133.09;;;24.66;59.78
45813;BME280;31519;45.408;10.962;2023-06-14T04:51:11;100143.44;;;24.82;58.69
45813;BME280;31519;45.408;10.962;2023-06-14T04:53:41;100137.44;;;24.94;58.65
45813;BME280;31519;45.408;10.962;2023-06-14T04:56:09;100143.28;;;25.23;58.22
45813;BME280;31519;45.408;10.962;2023-06-14T04:58:37;100141.69;;;25.26;57.88
45813;BME280;31519;45.408;10.962;2023-06-14T05:01:06;100140.66;;;25.43;57.09
45813;BME280;31519;45.408;10.962;2023-06-14T05:03:37;100142.25;;;25.13;57.86
45813;BME280;31519;45.408;10.962;2023-06-14T05:06:05;100146.84;;;25.20;57.32
45813;BME280;31519;45.408;10.962;2023-06-14T05:08:34;100145.09;;;25.06;58.00
45813;BME280;31519;45.408;10.962;2023-06-14T05:11:03;100140.66;;;24.18;62.53
45813;BME280;31519;45.408;10.962;2023-06-14T05:13:31;100145.38;;;24.07;64.39
45813;BME280;31519;45.408;10.962;2023-06-14T05:16:01;100147.69;;;23.67;65.79
45813;BME280;31519;45.408;10.962;2023-06-14T05:18:29;100151.16;;;23.71;64.69
45813;BME280;31519;45.408;10.962;2023-06-14T05:20:58;100154.09;;;23.91;64.00
45813;BME280;31519;45.408;10.962;2023-06-14T05:23:26;100148.25;;;23.93;63.88
45813;BME280;31519;45.408;10.962;2023-06-14T05:25:54;100155.91;;;24.05;63.32
45813;BME280;31519;45.408;10.962;2023-06-14T05:28:23;100155.22;;;24.38;62.31
45813;BME280;31519;45.408;10.962;2023-06-14T05:30:52;100154.34;;;24.07;63.03
45813;BME280;31519;45.408;10.962;2023-06-14T05:33:20;100153.69;;;24.34;61.62
45813;BME280;31519;45.408;10.962;2023-06-14T05:35:48;100156.41;;;24.37;61.32
45813;BME280;31519;45.408;10.962;2023-06-14T05:38:16;100159.50;;;24.73;60.10
45813;BME280;31519;45.408;10.962;2023-06-14T05:40:45;100158.78;;;25.30;57.72
45813;BME280;31519;45.408;10.962;2023-06-14T05:43:13;100163.97;;;25.47;56.74
45813;BME280;31519;45.408;10.962;2023-06-14T05:45:41;100168.97;;;25.52;55.53
45813;BME280;31519;45.408;10.962;2023-06-14T05:48:09;100172.03;;;25.81;54.72
45813;BME280;31519;45.408;10.962;2023-06-14T05:50:38;100171.16;;;26.11;53.37
45813;BME280;31519;45.408;10.962;2023-06-14T05:53:06;100176.78;;;26.24;52.93
45813;BME280;31519;45.408;10.962;2023-06-14T05:55:34;100172.88;;;26.44;52.90
45813;BME280;31519;45.408;10.962;2023-06-14T05:58:03;100184.25;;;26.43;53.94
45813;BME280;31519;45.408;10.962;2023-06-14T06:00:31;100178.84;;;26.16;56.78
45813;BME280;31519;45.408;10.962;2023-06-14T06:03:00;100188.00;;;26.06;57.00
45813;BME280;31519;45.408;10.962;2023-06-14T06:05:30;100182.94;;;26.04;56.13
45813;BME280;31519;45.408;10.962;2023-06-14T06:07:59;100180.16;;;25.85;55.96
45813;BME280;31519;45.408;10.962;2023-06-14T06:10:28;100175.13;;;25.83;56.07
45813;BME280;31519;45.408;10.962;2023-06-14T06:12:56;100173.63;;;26.02;55.22
45813;BME280;31519;45.408;10.962;2023-06-14T06:15:25;100176.91;;;25.93;56.09
45813;BME280;31519;45.408;10.962;2023-06-14T06:17:53;100180.75;;;26.19;55.53
45813;BME280;31519;45.408;10.962;2023-06-14T06:20:24;100188.09;;;25.99;55.73
45813;BME280;31519;45.408;10.962;2023-06-14T06:22:57;100189.25;;;26.01;53.78
45813;BME280;31519;45.408;10.962;2023-06-14T06:25:26;100191.06;;;26.08;53.64
45813;BME280;31519;45.408;10.962;2023-06-14T06:27:55;100192.63;;;26.32;52.99
45813;BME280;31519;45.408;10.962;2023-06-14T06:30:26;100198.31;;;26.18;53.22
45813;BME280;31519;45.408;10.962;2023-06-14T06:32:54;100193.75;;;26.12;53.20
45813;BME280;31519;45.408;10.962;2023-06-14T06:35:24;100199.84;;;26.42;52.39
45813;BME280;31519;45.408;10.962;2023-06-14T06:37:52;100198.06;;;26.09;52.77
45813;BME280;31519;45.408;10.962;2023-06-14T06:40:21;100200.25;;;26.21;52.70
45813;BME280;31519;45.408;10.962;2023-06-14T06:42:49;100201.47;;;26.17;52.78
45813;BME280;31519;45.408;10.962;2023-06-14T06:45:20;100202.22;;;26.21;53.08
45813;BME280;31519;45.408;10.962;2023-06-14T06:47:51;100205.22;;;26.03;54.21
45813;BME280;31519;45.408;10.962;2023-06-14T06:50:20;100205.97;;;26.03;53.98
45813;BME280;31519;45.408;10.962;2023-06-14T06:52:50;100209.19;;;25.98;54.10
45813;BME280;31519;45.408;10.962;2023-06-14T06:55:19;100215.13;;;25.93;53.98
45813;BME280;31519;45.408;10.962;2023-06-14T06:57:48;100210.56;;;26.33;53.20
45813;BME280;31519;45.408;10.962;2023-06-14T07:00:18;100216.91;;;26.27;53.35
45813;BME280;31519;45.408;10.962;2023-06-14T07:02:46;100215.06;;;25.97;53.82
45813;BME280;31519;45.408;10.962;2023-06-14T07:05:15;100209.66;;;26.17;53.46
45813;BME280;31519;45.408;10.962;2023-06-14T07:07:43;100216.09;;;26.30;53.99
45813;BME280;31519;45.408;10.962;2023-06-14T07:10:11;100214.66;;;26.22;53.16
45813;BME280;31519;45.408;10.962;2023-06-14T07:12:39;100216.06;;;26.07;53.42
45813;BME280;31519;45.408;10.962;2023-06-14T07:15:08;100221.16;;;26.51;52.50
45813;BME280;31519;45.408;10.962;2023-06-14T07:17:36;100217.09;;;26.39;52.97
45813;BME280;31519;45.408;10.962;2023-06-14T07:20:05;100216.66;;;26.41;52.60
45813;BME280;31519;45.408;10.962;2023-06-14T07:22:42;100222.41;;;26.46;52.83
45813;BME280;31519;45.408;10.962;2023-06-14T07:25:12;100228.34;;;26.41;53.28
45813;BME280;31519;45.408;10.962;2023-06-14T07:27:45;100227.28;;;26.35;53.52
45813;BME280;31519;45.408;10.962;2023-06-14T07:30:14;100236.53;;;26.18;53.68
45813;BME280;31519;45.408;10.962;2023-06-14T07:32:42;100229.06;;;26.45;53.29
45813;BME280;31519;45.408;10.962;2023-06-14T07:35:10;100233.25;;;26.50;53.02
45813;BME280;31519;45.408;10.962;2023-06-14T07:37:39;100232.59;;;26.66;53.06
45813;BME280;31519;45.408;10.962;2023-06-14T07:40:08;100239.38;;;26.58;52.97
45813;BME280;31519;45.408;10.962;2023-06-14T07:42:37;100233.22;;;26.73;52.51
45813;BME280;31519;45.408;10.962;2023-06-14T07:45:06;100227.47;;;26.48;52.90
45813;BME280;31519;45.408;10.962;2023-06-14T07:47:34;100236.59;;;26.81;52.14
45813;BME280;31519;45.408;10.962;2023-06-14T07:50:03;100231.06;;;26.84;52.45
45813;BME280;31519;45.408;10.962;2023-06-14T07:52:35;100228.31;;;26.65;52.87
45813;BME280;31519;45.408;10.962;2023-06-14T07:55:04;100230.63;;;26.66;52.04
45813;BME280;31519;45.408;10.962;2023-06-14T07:57:32;100230.16;;;26.71;52.27
45813;BME280;31519;45.408;10.962;2023-06-14T08:00:00;100232.88;;;26.71;52.43
45813;BME280;31519;45.408;10.962;2023-06-14T08:02:38;100223.44;;;26.76;52.31
45813;BME280;31519;45.408;10.962;2023-06-14T08:05:07;100232.25;;;26.83;52.04
45813;BME280;31519;45.408;10.962;2023-06-14T08:07:35;100231.88;;;26.81;52.16
45813;BME280;31519;45.408;10.962;2023-06-14T08:10:05;100233.06;;;27.04;51.81
45813;BME280;31519;45.408;10.962;2023-06-14T08:12:33;100239.72;;;27.03;51.89
45813;BME280;31519;45.408;10.962;2023-06-14T08:15:02;100234.72;;;26.98;52.11
45813;BME280;31519;45.408;10.962;2023-06-14T08:17:46;100233.25;;;26.93;52.05
45813;BME280;31519;45.408;10.962;2023-06-14T08:20:15;100239.75;;;26.79;52.47
45813;BME280;31519;45.408;10.962;2023-06-14T08:22:44;100242.34;;;26.86;51.68
45813;BME280;31519;45.408;10.962;2023-06-14T08:25:14;100240.31;;;26.71;52.34
45813;BME280;31519;45.408;10.962;2023-06-14T08:27:43;100246.16;;;26.93;51.48
45813;BME280;31519;45.408;10.962;2023-06-14T08:30:12;100245.78;;;26.90;51.53
45813;BME280;31519;45.408;10.962;2023-06-14T08:32:40;100248.72;;;27.19;50.09
45813;BME280;31519;45.408;10.962;2023-06-14T08:35:09;100257.66;;;27.04;50.97
45813;BME280;31519;45.408;10.962;2023-06-14T08:37:40;100253.34;;;27.22;50.07
45813;BME280;31519;45.408;10.962;2023-06-14T08:40:22;100249.00;;;27.25;50.11
45813;BME280;31519;45.408;10.962;2023-06-14T08:42:52;100246.47;;;27.14;49.52
45813;BME280;31519;45.408;10.962;2023-06-14T08:45:22;100256.72;;;27.30;49.91
45813;BME280;31519;45.408;10.962;2023-06-14T08:47:54;100252.22;;;27.20;50.61
45813;BME280;31519;45.408;10.962;2023-06-14T08:50:27;100251.78;;;27.41;50.33
45813;BME280;31519;45.408;10.962;2023-06-14T08:53:01;100259.94;;;27.25;49.85
45813;BME280;31519;45.408;10.962;2023-06-14T08:55:32;100269.53;;;27.33;49.87
45813;BME280;31519;45.408;10.962;2023-06-14T08:58:10;100270.16;;;27.41;49.82
45813;BME280;31519;45.408;10.962;2023-06-14T09:00:43;100266.47;;;27.31;48.94
45813;BME280;31519;45.408;10.962;2023-06-14T09:03:12;100270.81;;;27.48;48.89
45813;BME280;31519;45.408;10.962;2023-06-14T09:05:44;100270.50;;;27.43;48.42
45813;BME280;31519;45.408;10.962;2023-06-14T09:08:13;100275.91;;;27.46;48.01
45813;BME280;31519;45.408;10.962;2023-06-14T09:10:42;100280.66;;;27.62;47.60
45813;BME280;31519;45.408;10.962;2023-06-14T09:13:11;100276.75;;;27.43;47.90
45813;BME280;31519;45.408;10.962;2023-06-14T09:15:40;100275.22;;;27.22;48.38
45813;BME280;31519;45.408;10.962;2023-06-14T09:18:08;100273.13;;;27.30;48.63
45813;BME280;31519;45.408;10.962;2023-06-14T09:20:37;100276.22;;;26.93;49.15
45813;BME280;31519;45.408;10.962;2023-06-14T09:23:05;100276.94;;;26.73;49.58
45813;BME280;31519;45.408;10.962;2023-06-14T09:25:43;100281.81;;;27.25;48.36
45813;BME280;31519;45.408;10.962;2023-06-14T09:28:12;100280.00;;;27.18;48.27
45813;BME280;31519;45.408;10.962;2023-06-14T09:30:40;100276.56;;;27.34;47.72
45813;BME280;31519;45.408;10.962;2023-06-14T09:33:09;100278.03;;;27.19;48.32
45813;BME280;31519;45.408;10.962;2023-06-14T09:35:37;100274.69;;;27.31;48.44
45813;BME280;31519;45.408;10.962;2023-06-14T09:38:06;100278.88;;;27.36;48.21
45813;BME280;31519;45.408;10.962;2023-06-14T09:40:35;100285.19;;;27.52;47.64
45813;BME280;31519;45.408;10.962;2023-06-14T09:43:06;100284.31;;;26.76;49.08
45813;BME280;31519;45.408;10.962;2023-06-14T09:45:39;100290.91;;;26.79;48.67
45813;BME280;31519;45.408;10.962;2023-06-14T09:48:08;100282.53;;;27.49;47.92
45813;BME280;31519;45.408;10.962;2023-06-14T09:50:39;100280.91;;;27.51;47.93
45813;BME280;31519;45.408;10.962;2023-06-14T09:53:11;100281.72;;;27.68;46.79
45813;BME280;31519;45.408;10.962;2023-06-14T09:55:41;100286.16;;;27.78;46.86
45813;BME280;31519;45.408;10.962;2023-06-14T09:58:10;100280.53;;;27.85;46.53
45813;BME280;31519;45.408;10.962;2023-06-14T10:00:41;100289.75;;;27.59;46.60
45813;BME280;31519;45.408;10.962;2023-06-14T10:03:13;100286.63;;;28.09;45.81
45813;BME280;31519;45.408;10.962;2023-06-14T10:05:44;100282.34;;;28.24;45.11
45813;BME280;31519;45.408;10.962;2023-06-14T10:08:16;100276.63;;;28.35;45.22
45813;BME280;31519;45.408;10.962;2023-06-14T10:10:46;100273.97;;;28.31;45.48
45813;BME280;31519;45.408;10.962;2023-06-14T10:13:14;100276.66;;;28.18;44.87
45813;BME280;31519;45.408;10.962;2023-06-14T10:18:43;100267.47;;;28.41;45.15
45813;BME280;31519;45.408;10.962;2023-06-14T10:21:23;100266.38;;;28.51;44.88
45813;BME280;31519;45.408;10.962;2023-06-14T10:24:00;100271.44;;;28.53;44.11
45813;BME280;31519;45.408;10.962;2023-06-14T10:26:30;100265.09;;;28.72;44.10
45813;BME280;31519;45.408;10.962;2023-06-14T10:29:07;100263.19;;;28.69;44.37
45813;BME280;31519;45.408;10.962;2023-06-14T10:31:44;100261.91;;;28.74;43.81
45813;BME280;31519;45.408;10.962;2023-06-14T10:34:22;100258.59;;;28.95;43.15
45813;BME280;31519;45.408;10.962;2023-06-14T10:37:10;100258.97;;;29.10;43.36
45813;BME280;31519;45.408;10.962;2023-06-14T10:39:41;100265.47;;;29.28;43.31
45813;BME280;31519;45.408;10.962;2023-06-14T10:42:10;100257.25;;;29.28;42.48
45813;BME280;31519;45.408;10.962;2023-06-14T10:44:39;100256.38;;;29.31;40.39
45813;BME280;31519;45.408;10.962;2023-06-14T10:47:28;100249.81;;;29.41;39.77
45813;BME280;31519;45.408;10.962;2023-06-14T10:50:10;100258.28;;;29.60;39.92
45813;BME280;31519;45.408;10.962;2023-06-14T10:52:42;100261.03;;;29.60;39.87
45813;BME280;31519;45.408;10.962;2023-06-14T10:55:15;100257.16;;;29.44;40.06
45813;BME280;31519;45.408;10.962;2023-06-14T10:57:54;100250.03;;;29.60;39.25
45813;BME280;31519;45.408;10.962;2023-06-14T11:00:28;100253.22;;;29.58;38.76
45813;BME280;31519;45.408;10.962;2023-06-14T11:11:12;100242.59;;;30.89;35.36
45813;BME280;31519;45.408;10.962;2023-06-14T11:13:44;100236.97;;;31.14;34.69
45813;BME280;31519;45.408;10.962;2023-06-14T11:16:17;100231.19;;;31.21;35.32
45813;BME280;31519;45.408;10.962;2023-06-14T11:18:49;100227.44;;;31.37;34.62
45813;BME280;31519;45.408;10.962;2023-06-14T11:21:17;100227.66;;;31.51;33.81
45813;BME280;31519;45.408;10.962;2023-06-14T11:23:52;100235.03;;;31.23;34.60
45813;BME280;31519;45.408;10.962;2023-06-14T11:26:29;100226.38;;;31.74;32.98
45813;BME280;31519;45.408;10.962;2023-06-14T11:28:59;100228.25;;;31.46;33.32
45813;BME280;31519;45.408;10.962;2023-06-14T11:31:28;100217.00;;;31.32;33.08
45813;BME280;31519;45.408;10.962;2023-06-14T11:33:59;100209.16;;;31.12;34.13
45813;BME280;31519;45.408;10.962;2023-06-14T11:36:29;100217.44;;;31.21;33.20
45813;BME280;31519;45.408;10.962;2023-06-14T11:39:04;100208.50;;;31.08;33.56
45813;BME280;31519;45.408;10.962;2023-06-14T11:41:38;100211.56;;;31.10;33.78
45813;BME280;31519;45.408;10.962;2023-06-14T11:44:07;100210.34;;;30.89;33.95
45813;BME280;31519;45.408;10.962;2023-06-14T11:46:36;100197.88;;;30.75;34.09
45813;BME280;31519;45.408;10.962;2023-06-14T11:49:07;100205.00;;;31.47;33.25
45813;BME280;31519;45.408;10.962;2023-06-14T11:51:35;100203.69;;;31.21;33.95
45813;BME280;31519;45.408;10.962;2023-06-14T11:54:06;100198.81;;;31.25;34.34
45813;BME280;31519;45.408;10.962;2023-06-14T11:56:36;100199.91;;;31.37;33.62
45813;BME280;31519;45.408;10.962;2023-06-14T11:59:05;100195.97;;;32.05;32.79
45813;BME280;31519;45.408;10.962;2023-06-14T12:01:36;100193.38;;;32.01;32.86
45813;BME280;31519;45.408;10.962;2023-06-14T12:04:08;100195.97;;;31.07;34.40
45813;BME280;31519;45.408;10.962;2023-06-14T12:06:36;100196.88;;;30.60;34.79
45813;BME280;31519;45.408;10.962;2023-06-14T12:09:08;100196.09;;;31.34;34.61
45813;BME280;31519;45.408;10.962;2023-06-14T12:11:46;100192.31;;;31.50;34.18
45813;BME280;31519;45.408;10.962;2023-06-14T12:14:14;100186.16;;;31.86;34.49
45813;BME280;31519;45.408;10.962;2023-06-14T12:16:43;100172.41;;;32.22;33.86
45813;BME280;31519;45.408;10.962;2023-06-14T12:19:13;100176.09;;;32.28;34.20
45813;BME280;31519;45.408;10.962;2023-06-14T12:21:43;100180.81;;;32.00;34.69
45813;BME280;31519;45.408;10.962;2023-06-14T12:24:12;100172.88;;;32.02;34.01
45813;BME280;31519;45.408;10.962;2023-06-14T12:26:41;100171.28;;;31.74;34.90
45813;BME280;31519;45.408;10.962;2023-06-14T12:29:10;100167.16;;;31.79;34.63
45813;BME280;31519;45.408;10.962;2023-06-14T12:31:41;100161.03;;;31.75;34.28
45813;BME280;31519;45.408;10.962;2023-06-14T12:34:10;100163.50;;;32.00;34.05
45813;BME280;31519;45.408;10.962;2023-06-14T12:36:38;100156.91;;;31.70;34.03
45813;BME280;31519;45.408;10.962;2023-06-14T12:39:12;100167.50;;;30.57;35.89
45813;BME280;31519;45.408;10.962;2023-06-14T12:41:41;100159.28;;;30.79;35.37
45813;BME280;31519;45.408;10.962;2023-06-14T12:44:13;100155.94;;;31.15;35.10
45813;BME280;31519;45.408;10.962;2023-06-14T12:46:41;100163.31;;;31.27;35.09
45813;BME280;31519;45.408;10.962;2023-06-14T12:49:12;100169.44;;;31.31;34.47
45813;BME280;31519;45.408;10.962;2023-06-14T12:51:40;100167.53;;;30.79;34.92
45813;BME280;31519;45.408;10.962;2023-06-14T12:54:09;100158.25;;;30.64;34.98
45813;BME280;31519;45.408;10.962;2023-06-14T12:56:37;100152.06;;;31.03;33.90
45813;BME280;31519;45.408;10.962;2023-06-14T12:59:06;100161.75;;;30.86;33.80
45813;BME280;31519;45.408;10.962;2023-06-14T13:01:34;100159.03;;;30.95;34.55
45813;BME280;31519;45.408;10.962;2023-06-14T13:04:02;100154.22;;;32.25;33.08
45813;BME280;31519;45.408;10.962;2023-06-14T13:06:30;100143.94;;;32.43;33.95